sensor_id;sensor_type;location;lat;lon;timestamp;P1;durP1;ratioP1;P2;durP2;ratioP2
77220;SDS011;66217;50.004;8.266;2023-03-23T00:01:25;2.67;;;1.50;;
77220;SDS011;66217;50.004;8.266;2023-03-23T00:03:55;2.05;;;1.40;;
77220;SDS011;66217;50.004;8.266;2023-03-23T00:06:22;3.58;;;1.60;;
77220;SDS011;66217;50.004;8.266;2023-03-23T00:08:49;1.50;;;1.27;;
77220;SDS011;66217;50.004;8.266;2023-03-23T00:11:21;2.55;;;1.30;;
77220;SDS011;66217;50.004;8.266;2023-03-23T00:13:49;3.20;;;1.58;;
77220;SDS011;66217;50.004;8.266;2023-03-23T00:16:19;2.72;;;1.48;;
77220;SDS011;66217;50.004;8.266;2023-03-23T00:18:46;5.38;;;1.40;;
77220;SDS011;66217;50.004;8.266;2023-03-23T00:21:12;2.55;;;1.42;;
77220;SDS011;66217;50.004;8.266;2023-03-23T00:23:38;2.50;;;1.33;;
77220;SDS011;66217;50.004;8.266;2023-03-23T00:26:04;3.17;;;1.50;;
77220;SDS011;66217;50.004;8.266;2023-03-23T00:28:30;3.33;;;1.50;;
77220;SDS011;66217;50.004;8.266;2023-03-23T00:33:27;3.90;;;1.92;;
77220;SDS011;66217;50.004;8.266;2023-03-23T00:35:54;2.05;;;1.40;;
77220;SDS011;66217;50.004;8.266;2023-03-23T00:38:23;2.70;;;1.48;;
77220;SDS011;66217;50.004;8.266;2023-03-23T00:40:49;2.00;;;1.23;;
77220;SDS011;66217;50.004;8.266;2023-03-23T00:43:18;1.30;;;1.20;;
77220;SDS011;66217;50.004;8.266;2023-03-23T00:45:44;2.25;;;1.45;;
77220;SDS011;66217;50.004;8.266;2023-03-23T00:48:14;3.33;;;1.40;;
77220;SDS011;66217;50.004;8.266;2023-03-23T00:50:40;2.05;;;1.20;;
77220;SDS011;66217;50.004;8.266;2023-03-23T00:53:05;1.38;;;1.27;;
77220;SDS011;66217;50.004;8.266;2023-03-23T00:55:31;3.30;;;1.50;;
77220;SDS011;66217;50.004;8.266;2023-03-23T00:57:56;1.65;;;1.10;;
77220;SDS011;66217;50.004;8.266;2023-03-23T01:00:22;3.00;;;1.50;;
77220;SDS011;66217;50.004;8.266;2023-03-23T01:02:48;4.00;;;1.50;;
77220;SDS011;66217;50.004;8.266;2023-03-23T01:05:16;2.95;;;1.33;;
77220;SDS011;66217;50.004;8.266;2023-03-23T01:07:43;4.25;;;1.45;;
77220;SDS011;66217;50.004;8.266;2023-03-23T01:10:09;2.10;;;1.33;;
77220;SDS011;66217;50.004;8.266;2023-03-23T01:12:38;2.47;;;1.30;;
77220;SDS011;66217;50.004;8.266;2023-03-23T01:15:04;3.38;;;1.50;;
77220;SDS011;66217;50.004;8.266;2023-03-23T01:17:31;2.17;;;1.40;;
77220;SDS011;66217;50.004;8.266;2023-03-23T01:19:56;3.70;;;1.25;;
77220;SDS011;66217;50.004;8.266;2023-03-23T01:22:22;3.78;;;1.42;;
77220;SDS011;66217;50.004;8.266;2023-03-23T01:24:47;2.35;;;1.10;;
77220;SDS011;66217;50.004;8.266;2023-03-23T01:27:13;1.92;;;1.20;;
77220;SDS011;66217;50.004;8.266;2023-03-23T01:29:38;3.35;;;1.40;;
77220;SDS011;66217;50.004;8.266;2023-03-23T01:32:03;3.45;;;1.40;;
77220;SDS011;66217;50.004;8.266;2023-03-23T01:34:29;2.45;;;1.17;;
77220;SDS011;66217;50.004;8.266;2023-03-23T01:36:55;6.10;;;1.48;;
77220;SDS011;66217;50.004;8.266;2023-03-23T01:39:20;2.42;;;1.48;;
77220;SDS011;66217;50.004;8.266;2023-03-23T01:41:46;2.17;;;1.58;;
77220;SDS011;66217;50.004;8.266;2023-03-23T01:46:45;2.75;;;1.55;;
77220;SDS011;66217;50.004;8.266;2023-03-23T01:49:12;3.88;;;1.70;;
77220;SDS011;66217;50.004;8.266;2023-03-23T01:51:42;1.90;;;1.30;;
77220;SDS011;66217;50.004;8.266;2023-03-23T01:54:11;1.63;;;1.40;;
77220;SDS011;66217;50.004;8.266;2023-03-23T01:56:45;1.25;;;1.15;;
77220;SDS011;66217;50.004;8.266;2023-03-23T01:59:13;1.58;;;1.10;;
77220;SDS011;66217;50.004;8.266;2023-03-23T02:01:42;4.60;;;1.40;;
77220;SDS011;66217;50.004;8.266;2023-03-23T02:04:10;2.28;;;1.35;;
77220;SDS011;66217;50.004;8.266;2023-03-23T02:06:37;2.58;;;1.70;;
77220;SDS011;66217;50.004;8.266;2023-03-23T02:09:12;2.63;;;1.33;;
77220;SDS011;66217;50.004;8.266;2023-03-23T02:11:46;2.00;;;1.15;;
77220;SDS011;66217;50.004;8.266;2023-03-23T02:14:12;1.67;;;1.33;;
77220;SDS011;66217;50.004;8.266;2023-03-23T02:16:40;1.52;;;1.10;;
77220;SDS011;66217;50.004;8.266;2023-03-23T02:22:06;2.80;;;1.60;;
77220;SDS011;66217;50.004;8.266;2023-03-23T02:25:22;4.00;;;1.35;;
77220;SDS011;66217;50.004;8.266;2023-03-23T02:36:12;3.58;;;1.50;;
77220;SDS011;66217;50.004;8.266;2023-03-23T02:41:39;3.15;;;1.30;;
77220;SDS011;66217;50.004;8.266;2023-03-23T02:44:27;3.60;;;1.58;;
77220;SDS011;66217;50.004;8.266;2023-03-23T02:46:56;3.40;;;1.50;;
77220;SDS011;66217;50.004;8.266;2023-03-23T02:49:23;2.08;;;1.50;;
77220;SDS011;66217;50.004;8.266;2023-03-23T02:51:50;2.33;;;1.40;;
77220;SDS011;66217;50.004;8.266;2023-03-23T02:54:16;2.35;;;1.55;;
77220;SDS011;66217;50.004;8.266;2023-03-23T02:56:43;1.50;;;1.38;;
77220;SDS011;66217;50.004;8.266;2023-03-23T02:59:17;2.90;;;1.40;;
77220;SDS011;66217;50.004;8.266;2023-03-23T03:04:12;3.67;;;1.50;;
77220;SDS011;66217;50.004;8.266;2023-03-23T03:09:30;3.13;;;1.40;;
77220;SDS011;66217;50.004;8.266;2023-03-23T03:12:24;3.50;;;1.60;;
77220;SDS011;66217;50.004;8.266;2023-03-23T03:15:06;3.70;;;1.40;;
77220;SDS011;66217;50.004;8.266;2023-03-23T03:17:42;2.45;;;1.58;;
77220;SDS011;66217;50.004;8.266;2023-03-23T03:20:12;2.00;;;1.40;;
77220;SDS011;66217;50.004;8.266;2023-03-23T03:22:39;2.65;;;1.33;;
77220;SDS011;66217;50.004;8.266;2023-03-23T03:25:09;2.67;;;1.40;;
77220;SDS011;66217;50.004;8.266;2023-03-23T03:27:44;2.03;;;1.58;;
77220;SDS011;66217;50.004;8.266;2023-03-23T03:30:17;2.65;;;1.50;;
77220;SDS011;66217;50.004;8.266;2023-03-23T03:32:46;2.35;;;1.30;;
77220;SDS011;66217;50.004;8.266;2023-03-23T03:35:14;7.40;;;1.73;;
77220;SDS011;66217;50.004;8.266;2023-03-23T03:37:40;2.33;;;1.40;;
77220;SDS011;66217;50.004;8.266;2023-03-23T03:40:08;5.82;;;1.60;;
77220;SDS011;66217;50.004;8.266;2023-03-23T03:42:43;2.25;;;1.45;;
77220;SDS011;66217;50.004;8.266;2023-03-23T03:45:10;4.97;;;1.60;;
77220;SDS011;66217;50.004;8.266;2023-03-23T03:47:38;2.00;;;1.48;;
77220;SDS011;66217;50.004;8.266;2023-03-23T03:50:04;4.07;;;1.70;;
77220;SDS011;66217;50.004;8.266;2023-03-23T03:52:30;3.47;;;1.67;;
77220;SDS011;66217;50.004;8.266;2023-03-23T03:54:56;2.50;;;1.60;;
77220;SDS011;66217;50.004;8.266;2023-03-23T03:57:22;1.70;;;1.40;;
77220;SDS011;66217;50.004;8.266;2023-03-23T04:00:00;4.43;;;1.75;;
77220;SDS011;66217;50.004;8.266;2023-03-23T04:02:40;3.85;;;1.77;;
77220;SDS011;66217;50.004;8.266;2023-03-23T04:05:06;2.83;;;1.50;;
77220;SDS011;66217;50.004;8.266;2023-03-23T04:07:34;2.33;;;1.52;;
77220;SDS011;66217;50.004;8.266;2023-03-23T04:10:04;1.67;;;1.40;;
77220;SDS011;66217;50.004;8.266;2023-03-23T04:12:33;2.90;;;1.52;;
77220;SDS011;66217;50.004;8.266;2023-03-23T04:15:18;1.85;;;1.48;;
77220;SDS011;66217;50.004;8.266;2023-03-23T04:17:44;4.60;;;1.45;;
77220;SDS011;66217;50.004;8.266;2023-03-23T04:20:09;2.40;;;1.60;;
77220;SDS011;66217;50.004;8.266;2023-03-23T04:25:15;2.60;;;1.50;;
77220;SDS011;66217;50.004;8.266;2023-03-23T04:27:43;2.50;;;1.50;;
77220;SDS011;66217;50.004;8.266;2023-03-23T04:30:10;2.08;;;1.45;;
77220;SDS011;66217;50.004;8.266;2023-03-23T04:32:45;3.38;;;1.70;;
77220;SDS011;66217;50.004;8.266;2023-03-23T04:35:15;3.40;;;1.50;;
77220;SDS011;66217;50.004;8.266;2023-03-23T04:37:46;1.92;;;1.40;;
77220;SDS011;66217;50.004;8.266;2023-03-23T04:40:15;3.22;;;1.50;;
77220;SDS011;66217;50.004;8.266;2023-03-23T04:42:46;1.75;;;1.58;;
77220;SDS011;66217;50.004;8.266;2023-03-23T04:45:30;1.73;;;1.40;;
77220;SDS011;66217;50.004;8.266;2023-03-23T04:47:59;5.93;;;1.83;;
77220;SDS011;66217;50.004;8.266;2023-03-23T04:50:36;2.67;;;1.50;;
77220;SDS011;66217;50.004;8.266;2023-03-23T04:53:13;2.80;;;1.52;;
77220;SDS011;66217;50.004;8.266;2023-03-23T04:55:40;2.83;;;1.50;;
77220;SDS011;66217;50.004;8.266;2023-03-23T04:58:08;1.98;;;1.40;;
77220;SDS011;66217;50.004;8.266;2023-03-23T05:00:43;2.00;;;1.58;;
77220;SDS011;66217;50.004;8.266;2023-03-23T05:03:17;5.22;;;1.45;;
77220;SDS011;66217;50.004;8.266;2023-03-23T05:05:45;3.08;;;1.65;;
77220;SDS011;66217;50.004;8.266;2023-03-23T05:08:18;4.68;;;1.88;;
77220;SDS011;66217;50.004;8.266;2023-03-23T05:10:51;2.65;;;1.50;;
77220;SDS011;66217;50.004;8.266;2023-03-23T05:13:18;3.65;;;2.05;;
77220;SDS011;66217;50.004;8.266;2023-03-23T05:15:48;2.70;;;1.60;;
77220;SDS011;66217;50.004;8.266;2023-03-23T05:18:14;2.33;;;1.50;;
77220;SDS011;66217;50.004;8.266;2023-03-23T05:20:41;3.90;;;1.70;;
77220;SDS011;66217;50.004;8.266;2023-03-23T05:23:12;5.32;;;2.30;;
77220;SDS011;66217;50.004;8.266;2023-03-23T05:25:38;2.72;;;1.65;;
77220;SDS011;66217;50.004;8.266;2023-03-23T05:28:14;3.17;;;1.73;;
77220;SDS011;66217;50.004;8.266;2023-03-23T05:30:41;4.20;;;1.90;;
77220;SDS011;66217;50.004;8.266;2023-03-23T05:33:09;3.15;;;1.70;;
77220;SDS011;66217;50.004;8.266;2023-03-23T05:35:59;4.63;;;2.20;;
77220;SDS011;66217;50.004;8.266;2023-03-23T05:38:30;1.98;;;1.60;;
77220;SDS011;66217;50.004;8.266;2023-03-23T05:40:59;2.55;;;1.50;;
77220;SDS011;66217;50.004;8.266;2023-03-23T05:43:32;4.75;;;1.73;;
77220;SDS011;66217;50.004;8.266;2023-03-23T05:46:26;3.72;;;1.70;;
77220;SDS011;66217;50.004;8.266;2023-03-23T05:48:56;2.47;;;1.63;;
77220;SDS011;66217;50.004;8.266;2023-03-23T05:51:28;7.20;;;2.00;;
77220;SDS011;66217;50.004;8.266;2023-03-23T05:53:55;2.53;;;1.60;;
77220;SDS011;66217;50.004;8.266;2023-03-23T05:56:20;2.85;;;1.60;;
77220;SDS011;66217;50.004;8.266;2023-03-23T05:59:09;3.30;;;1.73;;
77220;SDS011;66217;50.004;8.266;2023-03-23T06:01:37;2.33;;;1.77;;
77220;SDS011;66217;50.004;8.266;2023-03-23T06:04:03;2.83;;;1.70;;
77220;SDS011;66217;50.004;8.266;2023-03-23T06:06:38;3.15;;;2.10;;
77220;SDS011;66217;50.004;8.266;2023-03-23T06:09:08;3.83;;;2.30;;
77220;SDS011;66217;50.004;8.266;2023-03-23T06:11:55;3.80;;;1.80;;
77220;SDS011;66217;50.004;8.266;2023-03-23T06:14:43;3.85;;;1.80;;
77220;SDS011;66217;50.004;8.266;2023-03-23T06:17:10;3.75;;;1.92;;
77220;SDS011;66217;50.004;8.266;2023-03-23T06:19:36;4.40;;;1.95;;
77220;SDS011;66217;50.004;8.266;2023-03-23T06:22:09;2.75;;;1.70;;
77220;SDS011;66217;50.004;8.266;2023-03-23T06:24:55;3.53;;;1.55;;
77220;SDS011;66217;50.004;8.266;2023-03-23T06:27:32;3.03;;;1.67;;
77220;SDS011;66217;50.004;8.266;2023-03-23T06:29:58;3.17;;;1.90;;
77220;SDS011;66217;50.004;8.266;2023-03-23T06:32:25;8.10;;;2.20;;
77220;SDS011;66217;50.004;8.266;2023-03-23T06:34:52;4.28;;;1.92;;
77220;SDS011;66217;50.004;8.266;2023-03-23T06:37:40;3.78;;;1.98;;
77220;SDS011;66217;50.004;8.266;2023-03-23T06:40:15;2.90;;;1.73;;
77220;SDS011;66217;50.004;8.266;2023-03-23T06:42:48;3.15;;;1.98;;
77220;SDS011;66217;50.004;8.266;2023-03-23T06:45:22;3.53;;;2.00;;
77220;SDS011;66217;50.004;8.266;2023-03-23T06:47:55;4.55;;;1.90;;
77220;SDS011;66217;50.004;8.266;2023-03-23T06:50:20;4.15;;;1.95;;
77220;SDS011;66217;50.004;8.266;2023-03-23T06:52:47;4.32;;;1.95;;
77220;SDS011;66217;50.004;8.266;2023-03-23T06:55:13;4.63;;;2.05;;
77220;SDS011;66217;50.004;8.266;2023-03-23T06:57:39;3.67;;;2.00;;
77220;SDS011;66217;50.004;8.266;2023-03-23T07:00:05;3.30;;;2.03;;
77220;SDS011;66217;50.004;8.266;2023-03-23T07:02:33;3.83;;;2.17;;
77220;SDS011;66217;50.004;8.266;2023-03-23T07:04:59;4.32;;;2.03;;
77220;SDS011;66217;50.004;8.266;2023-03-23T07:07:25;2.78;;;2.00;;
77220;SDS011;66217;50.004;8.266;2023-03-23T07:10:05;3.58;;;2.25;;
77220;SDS011;66217;50.004;8.266;2023-03-23T07:12:32;5.72;;;2.10;;
77220;SDS011;66217;50.004;8.266;2023-03-23T07:14:58;4.53;;;2.40;;
77220;SDS011;66217;50.004;8.266;2023-03-23T07:17:24;3.35;;;2.20;;
77220;SDS011;66217;50.004;8.266;2023-03-23T07:20:06;4.03;;;2.10;;
77220;SDS011;66217;50.004;8.266;2023-03-23T07:22:32;4.60;;;2.10;;
77220;SDS011;66217;50.004;8.266;2023-03-23T07:25:06;5.78;;;2.42;;
77220;SDS011;66217;50.004;8.266;2023-03-23T07:27:47;5.28;;;2.63;;
77220;SDS011;66217;50.004;8.266;2023-03-23T07:30:15;3.70;;;2.08;;
77220;SDS011;66217;50.004;8.266;2023-03-23T07:32:41;3.38;;;2.08;;
77220;SDS011;66217;50.004;8.266;2023-03-23T07:35:07;4.70;;;2.15;;
77220;SDS011;66217;50.004;8.266;2023-03-23T07:37:43;5.07;;;2.20;;
77220;SDS011;66217;50.004;8.266;2023-03-23T07:40:10;5.60;;;2.03;;
77220;SDS011;66217;50.004;8.266;2023-03-23T07:42:50;5.38;;;2.45;;
77220;SDS011;66217;50.004;8.266;2023-03-23T07:45:25;7.40;;;2.13;;
77220;SDS011;66217;50.004;8.266;2023-03-23T07:47:51;4.60;;;2.13;;
77220;SDS011;66217;50.004;8.266;2023-03-23T07:50:18;3.95;;;2.28;;
77220;SDS011;66217;50.004;8.266;2023-03-23T07:52:46;4.75;;;2.33;;
77220;SDS011;66217;50.004;8.266;2023-03-23T07:55:12;3.83;;;2.10;;
77220;SDS011;66217;50.004;8.266;2023-03-23T07:58:05;5.07;;;2.00;;
77220;SDS011;66217;50.004;8.266;2023-03-23T08:00:31;5.53;;;2.42;;
77220;SDS011;66217;50.004;8.266;2023-03-23T08:02:58;6.38;;;2.30;;
77220;SDS011;66217;50.004;8.266;2023-03-23T08:05:57;4.63;;;2.15;;
77220;SDS011;66217;50.004;8.266;2023-03-23T08:08:46;7.25;;;2.00;;
77220;SDS011;66217;50.004;8.266;2023-03-23T08:11:30;4.25;;;2.20;;
77220;SDS011;66217;50.004;8.266;2023-03-23T08:14:23;4.00;;;2.20;;
77220;SDS011;66217;50.004;8.266;2023-03-23T08:17:05;4.13;;;2.20;;
77220;SDS011;66217;50.004;8.266;2023-03-23T08:19:48;5.32;;;2.20;;
77220;SDS011;66217;50.004;8.266;2023-03-23T08:22:35;6.25;;;2.22;;
77220;SDS011;66217;50.004;8.266;2023-03-23T08:25:39;4.72;;;2.00;;
77220;SDS011;66217;50.004;8.266;2023-03-23T08:28:23;4.38;;;2.00;;
77220;SDS011;66217;50.004;8.266;2023-03-23T08:31:08;4.82;;;1.92;;
77220;SDS011;66217;50.004;8.266;2023-03-23T08:33:51;4.70;;;2.17;;
77220;SDS011;66217;50.004;8.266;2023-03-23T08:36:39;3.17;;;2.15;;
77220;SDS011;66217;50.004;8.266;2023-03-23T08:39:37;7.50;;;2.40;;
77220;SDS011;66217;50.004;8.266;2023-03-23T08:42:24;4.07;;;2.22;;
77220;SDS011;66217;50.004;8.266;2023-03-23T08:45:09;6.53;;;2.10;;
77220;SDS011;66217;50.004;8.266;2023-03-23T08:48:11;3.17;;;2.00;;
77220;SDS011;66217;50.004;8.266;2023-03-23T08:50:53;4.70;;;1.92;;
77220;SDS011;66217;50.004;8.266;2023-03-23T08:53:39;4.80;;;1.92;;
77220;SDS011;66217;50.004;8.266;2023-03-23T08:56:24;2.88;;;1.90;;
77220;SDS011;66217;50.004;8.266;2023-03-23T08:59:08;3.42;;;2.15;;
77220;SDS011;66217;50.004;8.266;2023-03-23T09:01:44;3.08;;;1.83;;
77220;SDS011;66217;50.004;8.266;2023-03-23T09:04:32;3.60;;;1.98;;
77220;SDS011;66217;50.004;8.266;2023-03-23T09:07:37;3.58;;;2.05;;
77220;SDS011;66217;50.004;8.266;2023-03-23T09:10:04;1.80;;;1.40;;
77220;SDS011;66217;50.004;8.266;2023-03-23T09:12:30;3.40;;;1.92;;
77220;SDS011;66217;50.004;8.266;2023-03-23T09:14:55;2.53;;;1.58;;
77220;SDS011;66217;50.004;8.266;2023-03-23T09:17:21;3.58;;;1.95;;
77220;SDS011;66217;50.004;8.266;2023-03-23T09:19:47;3.92;;;1.83;;
77220;SDS011;66217;50.004;8.266;2023-03-23T09:22:12;2.10;;;1.48;;
77220;SDS011;66217;50.004;8.266;2023-03-23T09:24:40;1.50;;;1.27;;
77220;SDS011;66217;50.004;8.266;2023-03-23T09:27:06;2.58;;;1.50;;
77220;SDS011;66217;50.004;8.266;2023-03-23T09:29:31;2.40;;;1.60;;
77220;SDS011;66217;50.004;8.266;2023-03-23T09:31:57;1.83;;;1.30;;
77220;SDS011;66217;50.004;8.266;2023-03-23T09:34:25;1.45;;;1.10;;
77220;SDS011;66217;50.004;8.266;2023-03-23T09:36:51;2.08;;;1.30;;
77220;SDS011;66217;50.004;8.266;2023-03-23T09:39:17;2.08;;;1.50;;
77220;SDS011;66217;50.004;8.266;2023-03-23T09:41:55;3.13;;;1.40;;
77220;SDS011;66217;50.004;8.266;2023-03-23T09:50:03;3.42;;;1.45;;
77220;SDS011;66217;50.004;8.266;2023-03-23T09:52:39;1.92;;;1.20;;
77220;SDS011;66217;50.004;8.266;2023-03-23T09:55:09;2.33;;;1.40;;
77220;SDS011;66217;50.004;8.266;2023-03-23T09:57:59;1.65;;;1.20;;
77220;SDS011;66217;50.004;8.266;2023-03-23T10:00:39;2.10;;;1.30;;
77220;SDS011;66217;50.004;8.266;2023-03-23T10:03:12;1.27;;;1.17;;
77220;SDS011;66217;50.004;8.266;2023-03-23T10:05:50;2.08;;;1.30;;
77220;SDS011;66217;50.004;8.266;2023-03-23T10:08:25;3.55;;;1.63;;
77220;SDS011;66217;50.004;8.266;2023-03-23T10:16:02;4.20;;;1.70;;
77220;SDS011;66217;50.004;8.266;2023-03-23T10:18:30;2.55;;;1.67;;
77220;SDS011;66217;50.004;8.266;2023-03-23T10:20:57;2.22;;;1.50;;
77220;SDS011;66217;50.004;8.266;2023-03-23T10:23:40;3.47;;;1.40;;
77220;SDS011;66217;50.004;8.266;2023-03-23T10:29:08;3.65;;;1.80;;
77220;SDS011;66217;50.004;8.266;2023-03-23T10:32:08;18.00;;;2.88;;
77220;SDS011;66217;50.004;8.266;2023-03-23T10:34:47;4.28;;;1.70;;
77220;SDS011;66217;50.004;8.266;2023-03-23T10:39:58;5.05;;;1.70;;
77220;SDS011;66217;50.004;8.266;2023-03-23T10:42:34;3.53;;;1.50;;
77220;SDS011;66217;50.004;8.266;2023-03-23T10:45:15;4.80;;;1.23;;
77220;SDS011;66217;50.004;8.266;2023-03-23T10:47:45;2.80;;;1.50;;
77220;SDS011;66217;50.004;8.266;2023-03-23T10:50:14;3.67;;;1.52;;
77220;SDS011;66217;50.004;8.266;2023-03-23T10:52:42;3.55;;;1.77;;
77220;SDS011;66217;50.004;8.266;2023-03-23T10:55:15;2.83;;;1.60;;
77220;SDS011;66217;50.004;8.266;2023-03-23T10:57:46;2.35;;;1.50;;
77220;SDS011;66217;50.004;8.266;2023-03-23T11:00:20;3.10;;;1.50;;
77220;SDS011;66217;50.004;8.266;2023-03-23T11:05:24;1.90;;;1.50;;
77220;SDS011;66217;50.004;8.266;2023-03-23T11:07:56;2.70;;;1.40;;
77220;SDS011;66217;50.004;8.266;2023-03-23T11:10:27;2.65;;;1.40;;
77220;SDS011;66217;50.004;8.266;2023-03-23T11:13:02;4.13;;;1.40;;
77220;SDS011;66217;50.004;8.266;2023-03-23T11:15:31;3.72;;;1.58;;
77220;SDS011;66217;50.004;8.266;2023-03-23T11:18:05;6.40;;;2.85;;
77220;SDS011;66217;50.004;8.266;2023-03-23T11:20:37;4.20;;;1.60;;
77220;SDS011;66217;50.004;8.266;2023-03-23T11:23:08;2.60;;;1.45;;
77220;SDS011;66217;50.004;8.266;2023-03-23T11:25:56;3.10;;;1.50;;
77220;SDS011;66217;50.004;8.266;2023-03-23T11:28:31;1.60;;;1.10;;
77220;SDS011;66217;50.004;8.266;2023-03-23T11:30:59;2.05;;;1.50;;
77220;SDS011;66217;50.004;8.266;2023-03-23T11:33:34;2.03;;;1.35;;
77220;SDS011;66217;50.004;8.266;2023-03-23T11:36:03;1.73;;;1.30;;
77220;SDS011;66217;50.004;8.266;2023-03-23T11:38:31;5.72;;;1.40;;
77220;SDS011;66217;50.004;8.266;2023-03-23T11:40:58;3.13;;;1.80;;
77220;SDS011;66217;50.004;8.266;2023-03-23T11:43:24;6.05;;;1.70;;
77220;SDS011;66217;50.004;8.266;2023-03-23T11:46:05;3.38;;;1.48;;
77220;SDS011;66217;50.004;8.266;2023-03-23T11:48:44;4.78;;;1.80;;
77220;SDS011;66217;50.004;8.266;2023-03-23T11:51:17;2.03;;;1.50;;
77220;SDS011;66217;50.004;8.266;2023-03-23T11:53:52;2.90;;;1.30;;
77220;SDS011;66217;50.004;8.266;2023-03-23T11:56:38;5.13;;;2.00;;
77220;SDS011;66217;50.004;8.266;2023-03-23T11:59:14;2.22;;;1.45;;
77220;SDS011;66217;50.004;8.266;2023-03-23T12:01:51;2.88;;;1.48;;
77220;SDS011;66217;50.004;8.266;2023-03-23T12:05:27;2.42;;;1.55;;
77220;SDS011;66217;50.004;8.266;2023-03-23T12:12:57;3.22;;;1.90;;
77220;SDS011;66217;50.004;8.266;2023-03-23T12:15:37;2.38;;;1.30;;
77220;SDS011;66217;50.004;8.266;2023-03-23T12:23:16;2.97;;;1.85;;
77220;SDS011;66217;50.004;8.266;2023-03-23T12:25:55;2.10;;;1.40;;
77220;SDS011;66217;50.004;8.266;2023-03-23T12:34:07;3.58;;;1.52;;
77220;SDS011;66217;50.004;8.266;2023-03-23T12:44:53;2.50;;;1.42;;
77220;SDS011;66217;50.004;8.266;2023-03-23T12:47:32;2.25;;;1.50;;
77220;SDS011;66217;50.004;8.266;2023-03-23T12:55:47;2.97;;;1.50;;
77220;SDS011;66217;50.004;8.266;2023-03-23T12:58:36;2.30;;;1.40;;
77220;SDS011;66217;50.004;8.266;2023-03-23T13:06:22;2.00;;;1.30;;
77220;SDS011;66217;50.004;8.266;2023-03-23T13:08:53;5.32;;;1.50;;
77220;SDS011;66217;50.004;8.266;2023-03-23T13:11:21;2.22;;;1.73;;
77220;SDS011;66217;50.004;8.266;2023-03-23T13:17:06;2.45;;;1.40;;
77220;SDS011;66217;50.004;8.266;2023-03-23T13:22:42;1.35;;;1.23;;
77220;SDS011;66217;50.004;8.266;2023-03-23T13:25:39;3.05;;;1.45;;
77220;SDS011;66217;50.004;8.266;2023-03-23T13:28:24;3.03;;;1.40;;
77220;SDS011;66217;50.004;8.266;2023-03-23T13:31:20;2.38;;;1.50;;
77220;SDS011;66217;50.004;8.266;2023-03-23T13:36:40;2.75;;;1.27;;
77220;SDS011;66217;50.004;8.266;2023-03-23T13:39:20;3.72;;;1.20;;
77220;SDS011;66217;50.004;8.266;2023-03-23T13:42:34;2.30;;;1.30;;
77220;SDS011;66217;50.004;8.266;2023-03-23T13:52:25;3.55;;;1.65;;
77220;SDS011;66217;50.004;8.266;2023-03-23T13:57:55;2.25;;;1.70;;
77220;SDS011;66217;50.004;8.266;2023-03-23T14:02:58;4.38;;;1.60;;
77220;SDS011;66217;50.004;8.266;2023-03-23T14:05:29;4.10;;;1.83;;
77220;SDS011;66217;50.004;8.266;2023-03-23T14:07:58;3.40;;;1.80;;
77220;SDS011;66217;50.004;8.266;2023-03-23T14:10:40;5.57;;;1.90;;
77220;SDS011;66217;50.004;8.266;2023-03-23T14:13:13;5.28;;;1.63;;
77220;SDS011;66217;50.004;8.266;2023-03-23T14:15:42;3.10;;;1.73;;
77220;SDS011;66217;50.004;8.266;2023-03-23T14:18:12;1.80;;;1.30;;
77220;SDS011;66217;50.004;8.266;2023-03-23T14:20:40;2.13;;;1.40;;
77220;SDS011;66217;50.004;8.266;2023-03-23T14:23:12;1.63;;;1.20;;
77220;SDS011;66217;50.004;8.266;2023-03-23T14:25:40;4.22;;;1.52;;
77220;SDS011;66217;50.004;8.266;2023-03-23T14:28:15;5.03;;;1.58;;
77220;SDS011;66217;50.004;8.266;2023-03-23T14:30:42;2.65;;;1.70;;
77220;SDS011;66217;50.004;8.266;2023-03-23T14:33:07;5.10;;;1.98;;
77220;SDS011;66217;50.004;8.266;2023-03-23T14:35:36;3.67;;;2.22;;
77220;SDS011;66217;50.004;8.266;2023-03-23T14:38:03;2.50;;;1.73;;
77220;SDS011;66217;50.004;8.266;2023-03-23T14:40:29;3.97;;;2.20;;
77220;SDS011;66217;50.004;8.266;2023-03-23T14:42:55;3.22;;;1.70;;
77220;SDS011;66217;50.004;8.266;2023-03-23T14:45:22;2.58;;;1.52;;
77220;SDS011;66217;50.004;8.266;2023-03-23T14:47:50;4.15;;;1.52;;
77220;SDS011;66217;50.004;8.266;2023-03-23T14:52:51;3.20;;;1.55;;
77220;SDS011;66217;50.004;8.266;2023-03-23T14:55:21;1.83;;;1.50;;
77220;SDS011;66217;50.004;8.266;2023-03-23T15:00:18;2.50;;;1.80;;
77220;SDS011;66217;50.004;8.266;2023-03-23T15:02:49;3.72;;;1.58;;
77220;SDS011;66217;50.004;8.266;2023-03-23T15:05:40;3.08;;;1.58;;
77220;SDS011;66217;50.004;8.266;2023-03-23T15:08:07;2.38;;;1.45;;
77220;SDS011;66217;50.004;8.266;2023-03-23T15:10:37;6.03;;;1.88;;
77220;SDS011;66217;50.004;8.266;2023-03-23T15:13:04;3.08;;;1.70;;
77220;SDS011;66217;50.004;8.266;2023-03-23T15:15:31;2.22;;;1.45;;
77220;SDS011;66217;50.004;8.266;2023-03-23T15:17:58;4.57;;;2.13;;
77220;SDS011;66217;50.004;8.266;2023-03-23T15:20:26;5.32;;;1.80;;
77220;SDS011;66217;50.004;8.266;2023-03-23T15:23:04;2.10;;;1.40;;
77220;SDS011;66217;50.004;8.266;2023-03-23T15:25:32;2.55;;;1.48;;
77220;SDS011;66217;50.004;8.266;2023-03-23T15:30:32;4.57;;;1.52;;
77220;SDS011;66217;50.004;8.266;2023-03-23T15:33:00;1.98;;;1.42;;
77220;SDS011;66217;50.004;8.266;2023-03-23T15:35:32;3.75;;;1.65;;
77220;SDS011;66217;50.004;8.266;2023-03-23T15:38:03;3.85;;;1.52;;
77220;SDS011;66217;50.004;8.266;2023-03-23T15:40:34;4.68;;;1.80;;
77220;SDS011;66217;50.004;8.266;2023-03-23T15:43:05;2.00;;;1.30;;
77220;SDS011;66217;50.004;8.266;2023-03-23T15:45:32;3.58;;;1.33;;
77220;SDS011;66217;50.004;8.266;2023-03-23T15:48:04;1.52;;;1.30;;
77220;SDS011;66217;50.004;8.266;2023-03-23T15:50:35;2.00;;;1.38;;
77220;SDS011;66217;50.004;8.266;2023-03-23T15:53:02;2.20;;;1.42;;
77220;SDS011;66217;50.004;8.266;2023-03-23T15:55:54;2.60;;;1.50;;
77220;SDS011;66217;50.004;8.266;2023-03-23T15:58:20;2.50;;;1.50;;
77220;SDS011;66217;50.004;8.266;2023-03-23T16:00:46;1.83;;;1.30;;
77220;SDS011;66217;50.004;8.266;2023-03-23T16:03:23;4.45;;;1.73;;
77220;SDS011;66217;50.004;8.266;2023-03-23T16:05:53;2.88;;;1.50;;
77220;SDS011;66217;50.004;8.266;2023-03-23T16:08:19;1.90;;;1.30;;
77220;SDS011;66217;50.004;8.266;2023-03-23T16:10:45;3.83;;;1.63;;
77220;SDS011;66217;50.004;8.266;2023-03-23T16:13:11;2.33;;;1.55;;
77220;SDS011;66217;50.004;8.266;2023-03-23T16:15:36;4.20;;;1.60;;
77220;SDS011;66217;50.004;8.266;2023-03-23T16:18:02;4.95;;;2.00;;
77220;SDS011;66217;50.004;8.266;2023-03-23T16:20:28;2.95;;;1.67;;
77220;SDS011;66217;50.004;8.266;2023-03-23T16:22:54;2.50;;;2.15;;
77220;SDS011;66217;50.004;8.266;2023-03-23T16:25:19;4.03;;;1.90;;
77220;SDS011;66217;50.004;8.266;2023-03-23T16:27:45;2.75;;;1.77;;
77220;SDS011;66217;50.004;8.266;2023-03-23T16:30:25;6.50;;;1.60;;
77220;SDS011;66217;50.004;8.266;2023-03-23T16:32:54;4.28;;;2.10;;
77220;SDS011;66217;50.004;8.266;2023-03-23T16:35:20;2.30;;;1.70;;
77220;SDS011;66217;50.004;8.266;2023-03-23T16:37:53;4.13;;;2.10;;
77220;SDS011;66217;50.004;8.266;2023-03-23T16:40:20;2.20;;;1.60;;
77220;SDS011;66217;50.004;8.266;2023-03-23T16:42:46;3.05;;;1.92;;
77220;SDS011;66217;50.004;8.266;2023-03-23T16:45:12;3.00;;;1.85;;
77220;SDS011;66217;50.004;8.266;2023-03-23T16:47:38;6.13;;;2.65;;
77220;SDS011;66217;50.004;8.266;2023-03-23T16:50:04;3.83;;;2.58;;
77220;SDS011;66217;50.004;8.266;2023-03-23T16:52:31;4.93;;;2.30;;
77220;SDS011;66217;50.004;8.266;2023-03-23T16:54:57;5.90;;;2.55;;
77220;SDS011;66217;50.004;8.266;2023-03-23T16:57:23;3.95;;;2.08;;
77220;SDS011;66217;50.004;8.266;2023-03-23T16:59:49;4.07;;;2.20;;
77220;SDS011;66217;50.004;8.266;2023-03-23T17:02:14;5.18;;;2.28;;
77220;SDS011;66217;50.004;8.266;2023-03-23T17:04:43;3.78;;;2.22;;
77220;SDS011;66217;50.004;8.266;2023-03-23T17:07:10;3.53;;;2.42;;
77220;SDS011;66217;50.004;8.266;2023-03-23T17:09:36;2.53;;;2.03;;